Kezdőlap
METAR-TAF:

METAR-TAF

Repülőterek :

Logan-Cache Airport

Logan, Utah, Amerikai Egyesült Államok

földrajzi szélesség: 41-46-58N, földrajzi hosszúság: 111-51-14W, magasság: 1357 m

Jelenlegi meteorológiai megfigyelések

A jelentés 1 órával és 3 perccel ezelõtt készült, 20:51 UTC
Északnyugati szél 7 kt
Hőmérséklet 34°C
Páratartalom 14%
Légköri nyomás 1021 hPa
Látótávolság: 16.1 km
Derült ég

METAR: KLGU 212051Z AUTO 32007KT 10SM CLR 34/03 A3015 RMK AO2 SLP141 T03390028 58017

Idő: 15:54 (21:54 UTC)

Előrejelzés

A jelentés 4 órával és 34 perccel ezelõtt készült, 17:20 UTC
Az előrejelzés 21-én 18 óra UTC és 22-én 18 óra UTC között érvényes
Észak-északkeleti szél 11 kt
Látótávolság: 10 km
Kevés felhő 11000 lábon
22-én 0700 órától UTC szerint
Keleti szél 15 kt széllökések: 25 kt
Látótávolság: 10 km
Derült ég

TAF: KLGU 211720Z 2118/2218 02011KT P6SM FEW110 FM220700 10015G25KT P6SM SKC

Meteorológiai megfigyelések és előrejelzések több, mint 4000 repülőtéren (METAR és TAF jelentéseket).

A térképen piros és sárga pontok jelzik az elérhető meteorológiai állomásokat.

Mozgassa az egeret a pont fölött, hogy megjelenjen az állomás neve.

Azután kattintson az időjárási megfigyelések és előrejelzések megtekintéséhez.

A térkép megváltoztatása: kattintson a fekete keresztel jelölt zöld gombra ráközelítéshez, a vonallal jelölt zöld gombra távolításhoz, vagy a zöld nyilakra a szomszédos térképek eléréséhez.


METAR-TAF: